Cape May County Airport
KWWD : now visible

Airfield :











YOU CAN JOIN US ON...

 
LOGIN :

Register | Disclaimer

   EN    FR    IT 

 









Legend :    VFR   Marginal VFR   IFR   Intensive IFR   Very Intensive IFR
Visi :
Ceiling :
>= 8 km
>= 3000ft
5 to 8 km
1000 to 3000 ft
1500m to 5 km
500 to 1000 ft
800 to 1500m
200 to 500 ft
< 800m
< 200 ft
Symbols :   Thunderstorms  Fog  Heavy snow  Heavy precipitations  Wind > 20 kt






- Airport Elevation : 23 ft


KWWD - Cape May County

CURRENT METAR :
  • 281556Z AUTO 33012G17KT 10SM OVC039 05/M03 A2991 RMK AO2 SLP130 T00501028

EXPIRED METARs :
  • 281456Z AUTO 32010G15KT 10SM OVC043 05/M02 A2991 RMK AO2 SLP130 T00501017 51017
  • 281356Z AUTO 31008G15KT 10SM OVC045 04/M01 A2990 RMK AO2 SLP126 T00441006

TAF N/A



MET'MAP, your aeronautical weather chart ! - Copyright ORBIFLY December 2007 - Disclaimer

ORBIFLY MET'MAP TEAM :

Programming & Development : Alexandra Zaïnal
Concept & original design : Baudouin d'Aumeries
Assistance for programming : Marc-Olivier Méhu
Technical & hardware support : Manuel Goepfert

Contact : metmap@orbifly.com




SOURCES & CREDITS :

   NOAA       Earth
Advisory